createdAt,value
2017-09-24T00:00:50.008Z,0
2017-09-24T00:02:00.433Z,0
2017-09-24T00:03:07.789Z,0
2017-09-24T00:04:15.877Z,0
2017-09-24T00:05:23.966Z,0
2017-09-24T00:06:32.052Z,0
2017-09-24T00:07:40.142Z,0
2017-09-24T00:08:48.234Z,0
2017-09-24T00:09:56.322Z,0
2017-09-24T00:11:04.410Z,0
2017-09-24T00:12:12.507Z,0
2017-09-24T00:13:20.588Z,0
2017-09-24T00:14:28.675Z,0
2017-09-24T00:15:36.873Z,0
2017-09-24T00:16:44.961Z,0
2017-09-24T00:17:53.050Z,0
2017-09-24T00:19:01.137Z,0
2017-09-24T00:20:09.224Z,0
2017-09-24T00:21:17.310Z,0
2017-09-24T00:22:25.401Z,0
2017-09-24T00:23:33.485Z,0
2017-09-24T00:24:41.580Z,0
2017-09-24T00:25:49.663Z,0
2017-09-24T00:26:57.767Z,0
2017-09-24T00:28:05.849Z,0
2017-09-24T00:29:13.937Z,0
2017-09-24T00:30:22.031Z,0
2017-09-24T00:31:30.119Z,0
2017-09-24T00:32:38.209Z,0
2017-09-24T00:33:46.296Z,0
2017-09-24T00:34:54.385Z,0
2017-09-24T00:36:02.470Z,0
2017-09-24T00:37:10.566Z,0
2017-09-24T00:38:18.653Z,0
2017-09-24T00:39:26.761Z,0
2017-09-24T00:40:34.833Z,0
2017-09-24T00:41:42.922Z,0
2017-09-24T00:42:51.009Z,0
2017-09-24T00:43:59.097Z,0
2017-09-24T00:45:07.185Z,0
2017-09-24T00:46:15.283Z,0
2017-09-24T00:47:23.369Z,0
2017-09-24T00:48:31.477Z,0
2017-09-24T00:49:39.562Z,0
2017-09-24T00:50:47.639Z,0
2017-09-24T00:51:55.728Z,0
2017-09-24T00:53:03.817Z,0
2017-09-24T00:54:11.907Z,0
2017-09-24T00:55:19.996Z,0
2017-09-24T00:56:28.081Z,0
2017-09-24T00:57:36.169Z,0
2017-09-24T00:58:44.255Z,0
2017-09-24T00:59:52.342Z,0
2017-09-24T01:01:00.431Z,0
2017-09-24T01:02:08.518Z,0
2017-09-24T01:03:16.608Z,0
2017-09-24T01:04:24.695Z,0
2017-09-24T01:05:32.797Z,0
2017-09-24T01:06:40.872Z,0
2017-09-24T01:07:48.958Z,0
2017-09-24T01:08:57.090Z,0
2017-09-24T01:10:05.177Z,0
2017-09-24T01:11:13.267Z,0
2017-09-24T01:12:21.420Z,0
2017-09-24T01:13:29.442Z,0
2017-09-24T01:14:37.531Z,0
2017-09-24T01:15:45.619Z,0
2017-09-24T01:16:53.702Z,0
2017-09-24T01:18:01.804Z,0
2017-09-24T01:19:09.881Z,0
2017-09-24T01:20:17.971Z,0
2017-09-24T01:21:26.054Z,0
2017-09-24T01:22:34.145Z,0
2017-09-24T01:23:42.230Z,0
2017-09-24T01:24:50.318Z,0
2017-09-24T01:25:58.407Z,0
2017-09-24T01:27:06.493Z,0
2017-09-24T01:28:14.586Z,0
2017-09-24T01:29:22.676Z,0
2017-09-24T01:30:30.764Z,0
2017-09-24T01:31:38.851Z,0
2017-09-24T01:32:46.937Z,0
2017-09-24T01:33:55.033Z,0
2017-09-24T01:35:03.113Z,0
2017-09-24T01:36:11.201Z,0
2017-09-24T01:37:19.291Z,0
2017-09-24T01:38:27.385Z,0
2017-09-24T01:39:35.464Z,0
2017-09-24T01:40:43.557Z,0
2017-09-24T01:41:51.646Z,0
2017-09-24T01:42:59.730Z,0
2017-09-24T01:44:07.815Z,0
2017-09-24T01:45:15.907Z,0
2017-09-24T01:46:23.989Z,0
2017-09-24T01:47:32.083Z,0
2017-09-24T01:48:40.165Z,0
2017-09-24T01:49:48.253Z,0
2017-09-24T01:50:56.339Z,0
2017-09-24T01:52:04.429Z,0
2017-09-24T01:53:12.526Z,0
2017-09-24T01:54:20.607Z,0
2017-09-24T01:55:28.692Z,0
2017-09-24T01:56:36.778Z,0
2017-09-24T01:57:44.870Z,0
2017-09-24T01:58:52.954Z,0
2017-09-24T02:00:01.036Z,0
2017-09-24T02:01:09.129Z,0
2017-09-24T02:02:17.218Z,0
2017-09-24T02:03:25.314Z,0
2017-09-24T02:04:33.390Z,0
2017-09-24T02:05:41.480Z,0
2017-09-24T02:06:49.565Z,0
2017-09-24T02:07:57.653Z,0
2017-09-24T02:09:05.754Z,0
2017-09-24T02:10:13.955Z,0
2017-09-24T02:11:22.038Z,0
2017-09-24T02:12:30.129Z,0
2017-09-24T02:13:38.215Z,0
2017-09-24T02:14:46.301Z,0
2017-09-24T02:15:54.387Z,0
2017-09-24T02:17:02.468Z,0
2017-09-24T02:18:10.562Z,0
2017-09-24T02:19:18.648Z,0
2017-09-24T02:20:26.742Z,0
2017-09-24T02:21:34.823Z,0
2017-09-24T02:22:42.910Z,0
2017-09-24T02:23:50.998Z,0
2017-09-24T02:24:59.085Z,0
2017-09-24T02:26:07.174Z,0
2017-09-24T02:27:15.259Z,0
2017-09-24T02:28:23.347Z,0
2017-09-24T02:29:31.446Z,0
2017-09-24T02:30:39.536Z,0
2017-09-24T02:31:47.624Z,0
2017-09-24T02:32:55.728Z,0
2017-09-24T02:34:03.797Z,0
2017-09-24T02:35:11.888Z,0
2017-09-24T02:36:19.967Z,0
2017-09-24T02:37:28.055Z,0
2017-09-24T02:38:36.142Z,0
2017-09-24T02:39:44.229Z,0
2017-09-24T02:40:52.317Z,0
2017-09-24T02:42:00.405Z,0
2017-09-24T02:43:08.502Z,0
2017-09-24T02:44:16.583Z,0
2017-09-24T02:45:24.665Z,0
2017-09-24T02:46:32.757Z,0
2017-09-24T02:47:40.843Z,0
2017-09-24T02:48:48.931Z,0
2017-09-24T02:49:57.020Z,0
2017-09-24T02:51:05.105Z,0
2017-09-24T02:52:13.196Z,0
2017-09-24T02:53:21.283Z,0
2017-09-24T02:54:29.380Z,0
2017-09-24T02:55:37.491Z,0
2017-09-24T02:56:45.555Z,0
2017-09-24T02:57:53.642Z,0
2017-09-24T02:59:01.750Z,0
2017-09-24T03:00:09.819Z,0
2017-09-24T03:01:17.906Z,0
2017-09-24T03:02:26.012Z,0
2017-09-24T03:03:34.098Z,0
2017-09-24T03:04:42.186Z,0
2017-09-24T03:05:50.275Z,0
2017-09-24T03:06:58.359Z,0
2017-09-24T03:08:06.444Z,0
2017-09-24T03:09:14.530Z,0
2017-09-24T03:10:22.625Z,0
2017-09-24T03:11:30.706Z,0
2017-09-24T03:12:38.805Z,0
2017-09-24T03:13:46.882Z,0
2017-09-24T03:14:54.971Z,0
2017-09-24T03:16:03.056Z,0
2017-09-24T03:17:11.142Z,0
2017-09-24T03:18:19.227Z,0
2017-09-24T03:19:27.314Z,0
2017-09-24T03:20:35.498Z,0
2017-09-24T03:21:43.495Z,0
2017-09-24T03:22:51.595Z,0
2017-09-24T03:23:59.676Z,0
2017-09-24T03:25:07.756Z,0
2017-09-24T03:26:15.843Z,0
2017-09-24T03:27:23.934Z,0
2017-09-24T03:28:32.038Z,0
2017-09-24T03:29:40.103Z,0
2017-09-24T03:30:48.195Z,0
2017-09-24T03:31:56.280Z,0
2017-09-24T03:33:04.368Z,0
2017-09-24T03:34:12.453Z,0
2017-09-24T03:35:20.538Z,0
2017-09-24T03:36:28.630Z,0
2017-09-24T03:37:36.712Z,0
2017-09-24T03:38:44.801Z,0
2017-09-24T03:39:52.888Z,0
2017-09-24T03:41:00.975Z,0
2017-09-24T03:42:09.062Z,0
2017-09-24T03:43:17.150Z,0
2017-09-24T03:44:25.231Z,0
2017-09-24T03:45:33.319Z,0
2017-09-24T03:46:41.405Z,0
2017-09-24T03:47:49.490Z,0
2017-09-24T03:48:57.617Z,0
2017-09-24T03:50:05.666Z,0
2017-09-24T03:51:13.755Z,0
2017-09-24T03:52:21.849Z,0
2017-09-24T03:53:29.935Z,0
2017-09-24T03:54:38.025Z,0
2017-09-24T03:55:46.111Z,0
2017-09-24T03:56:54.196Z,0
2017-09-24T03:58:02.287Z,0
2017-09-24T03:59:10.375Z,0
2017-09-24T04:00:18.522Z,0
2017-09-24T04:01:26.608Z,0
2017-09-24T04:02:34.696Z,0
2017-09-24T04:03:42.792Z,0
2017-09-24T04:04:50.880Z,0
2017-09-24T04:05:58.984Z,0
2017-09-24T04:07:07.053Z,0
2017-09-24T04:08:15.151Z,0
2017-09-24T04:09:23.249Z,0
2017-09-24T04:10:31.332Z,0
2017-09-24T04:11:39.419Z,0
2017-09-24T04:12:47.507Z,0
2017-09-24T04:13:55.599Z,0
2017-09-24T04:15:03.681Z,0
2017-09-24T04:16:11.776Z,0
2017-09-24T04:17:19.867Z,0
2017-09-24T04:18:27.950Z,0
2017-09-24T04:19:36.035Z,0
2017-09-24T04:20:44.121Z,0
2017-09-24T04:21:52.208Z,0
2017-09-24T04:23:00.294Z,0
2017-09-24T04:24:08.384Z,0
2017-09-24T04:25:16.471Z,0
2017-09-24T04:26:24.563Z,0
2017-09-24T04:27:32.646Z,0
2017-09-24T04:28:40.739Z,0
2017-09-24T04:29:49.195Z,0
2017-09-24T04:30:56.906Z,0
2017-09-24T04:32:04.990Z,0
2017-09-24T04:33:13.079Z,0
2017-09-24T04:34:21.166Z,0
2017-09-24T04:35:29.254Z,0
2017-09-24T04:36:37.342Z,0
2017-09-24T04:37:45.430Z,0
2017-09-24T04:38:53.518Z,0
2017-09-24T04:40:01.603Z,0
2017-09-24T04:41:09.689Z,0
2017-09-24T04:42:17.776Z,0
2017-09-24T04:43:25.865Z,0
2017-09-24T04:44:33.958Z,0
2017-09-24T04:45:42.047Z,0
2017-09-24T04:46:50.133Z,0
2017-09-24T04:47:58.222Z,0
2017-09-24T04:49:06.308Z,0
2017-09-24T04:50:14.402Z,0
2017-09-24T04:51:22.494Z,0
2017-09-24T04:52:30.628Z,0
2017-09-24T04:53:38.665Z,0
2017-09-24T04:54:46.752Z,0
2017-09-24T04:55:54.839Z,0
2017-09-24T04:57:02.924Z,0
2017-09-24T04:58:11.012Z,0
2017-09-24T04:59:19.100Z,0
2017-09-24T05:00:27.188Z,0
2017-09-24T05:01:35.273Z,0
2017-09-24T05:02:43.361Z,0
2017-09-24T05:03:51.447Z,0
2017-09-24T05:04:59.554Z,0
2017-09-24T05:06:07.620Z,0
2017-09-24T05:07:15.712Z,0
2017-09-24T05:08:23.797Z,0
2017-09-24T05:09:31.888Z,0
2017-09-24T05:10:39.977Z,0
2017-09-24T05:11:48.060Z,0
2017-09-24T05:12:56.146Z,0
2017-09-24T05:14:04.232Z,0
2017-09-24T05:15:12.318Z,0
2017-09-24T05:16:20.406Z,0
2017-09-24T05:17:28.493Z,0
2017-09-24T05:18:36.581Z,0
2017-09-24T05:19:44.666Z,0
2017-09-24T05:20:52.754Z,0
2017-09-24T05:22:00.842Z,0
2017-09-24T05:23:08.929Z,0
2017-09-24T05:24:17.017Z,0
2017-09-24T05:25:25.103Z,0
2017-09-24T05:26:33.194Z,0
2017-09-24T05:27:41.283Z,0
2017-09-24T05:28:49.646Z,0
2017-09-24T05:29:57.450Z,0
2017-09-24T05:31:05.536Z,0
2017-09-24T05:32:13.625Z,0
2017-09-24T05:33:21.896Z,0
2017-09-24T05:34:29.798Z,0
2017-09-24T05:35:37.890Z,0
2017-09-24T05:36:45.978Z,0
2017-09-24T05:37:54.060Z,0
2017-09-24T05:39:02.139Z,0
2017-09-24T05:40:10.238Z,0
2017-09-24T05:41:18.325Z,4
2017-09-24T05:42:26.413Z,4
2017-09-24T05:43:34.849Z,0
2017-09-24T05:44:42.590Z,0
2017-09-24T05:45:50.671Z,0
2017-09-24T05:46:58.758Z,0
2017-09-24T05:48:06.847Z,0
2017-09-24T05:49:14.954Z,0
2017-09-24T05:50:23.021Z,4
2017-09-24T05:51:31.107Z,0
2017-09-24T05:52:39.192Z,0
2017-09-24T05:53:47.313Z,0
2017-09-24T05:54:55.616Z,0
2017-09-24T05:56:03.460Z,0
2017-09-24T05:57:11.891Z,4
2017-09-24T05:58:19.627Z,4
2017-09-24T05:59:27.713Z,4
2017-09-24T06:00:36.260Z,4
2017-09-24T06:01:43.890Z,0
2017-09-24T06:02:51.976Z,0
2017-09-24T06:04:00.060Z,0
2017-09-24T06:05:08.560Z,0
2017-09-24T06:06:16.233Z,0
2017-09-24T06:07:24.320Z,0
2017-09-24T06:08:32.409Z,0
2017-09-24T06:09:40.750Z,4
2017-09-24T06:10:48.582Z,4
2017-09-24T06:11:56.731Z,0
2017-09-24T06:13:04.755Z,0
2017-09-24T06:14:13.468Z,0
2017-09-24T06:15:20.927Z,0
2017-09-24T06:16:29.015Z,0
2017-09-24T06:17:37.291Z,0
2017-09-24T06:18:45.255Z,0
2017-09-24T06:19:53.277Z,0
2017-09-24T06:21:01.367Z,0
2017-09-24T06:22:09.450Z,0
2017-09-24T06:23:17.538Z,4
2017-09-24T06:24:25.882Z,4
2017-09-24T06:25:33.718Z,0
2017-09-24T06:26:41.992Z,0
2017-09-24T06:27:50.480Z,0
2017-09-24T06:28:59.012Z,0
2017-09-24T06:30:06.058Z,0
2017-09-24T06:31:14.284Z,0
2017-09-24T06:32:22.526Z,0
2017-09-24T06:33:30.991Z,0
2017-09-24T06:34:38.917Z,4
2017-09-24T06:35:46.935Z,4
2017-09-24T06:36:54.582Z,0
2017-09-24T06:38:02.901Z,4
2017-09-24T06:39:10.753Z,4
2017-09-24T06:40:18.871Z,4
2017-09-24T06:41:26.973Z,4
2017-09-24T06:42:35.045Z,4
2017-09-24T06:43:43.210Z,0
2017-09-24T06:44:51.736Z,0
2017-09-24T06:45:59.309Z,0
2017-09-24T06:47:07.391Z,4
2017-09-24T06:48:15.568Z,4
2017-09-24T06:49:23.824Z,4
2017-09-24T06:50:32.159Z,4
2017-09-24T06:51:39.953Z,4
2017-09-24T06:52:48.309Z,4
2017-09-24T06:53:56.092Z,4
2017-09-24T06:55:04.214Z,0
2017-09-24T06:56:12.152Z,4
2017-09-24T06:57:20.396Z,4
2017-09-24T06:58:28.276Z,4
2017-09-24T06:59:36.423Z,4
2017-09-24T07:00:44.437Z,4
2017-09-24T07:01:52.517Z,4
2017-09-24T07:03:00.604Z,4
2017-09-24T07:04:08.689Z,4
2017-09-24T07:05:16.779Z,4
2017-09-24T07:06:24.860Z,4
2017-09-24T07:07:32.950Z,4
2017-09-24T07:08:41.037Z,4
2017-09-24T07:09:49.131Z,4
2017-09-24T07:10:57.218Z,4
2017-09-24T07:12:05.304Z,4
2017-09-24T07:13:13.390Z,4
2017-09-24T07:14:21.477Z,4
2017-09-24T07:15:29.570Z,4
2017-09-24T07:16:37.666Z,4
2017-09-24T07:17:45.737Z,4
2017-09-24T07:18:53.823Z,4
2017-09-24T07:20:01.910Z,4
2017-09-24T07:21:09.997Z,4
2017-09-24T07:22:18.082Z,4
2017-09-24T07:23:26.168Z,4
2017-09-24T07:24:34.257Z,4
2017-09-24T07:25:42.343Z,4
2017-09-24T07:26:50.439Z,4
2017-09-24T07:27:58.528Z,0
2017-09-24T07:29:06.613Z,4
2017-09-24T07:30:14.749Z,4
2017-09-24T07:31:22.785Z,0
2017-09-24T07:32:30.871Z,4
2017-09-24T07:33:38.959Z,4
2017-09-24T07:34:47.044Z,4
2017-09-24T07:35:55.132Z,4
2017-09-24T07:37:03.219Z,4
2017-09-24T07:38:11.310Z,4
2017-09-24T07:39:19.393Z,4
2017-09-24T07:40:27.480Z,4
2017-09-24T07:41:35.569Z,4
2017-09-24T07:42:43.672Z,4
2017-09-24T07:43:51.752Z,4
2017-09-24T07:45:00.162Z,4
2017-09-24T07:46:08.204Z,4
2017-09-24T07:47:16.371Z,4
2017-09-24T07:48:24.509Z,4
2017-09-24T07:49:32.287Z,4
2017-09-24T07:50:40.689Z,4
2017-09-24T07:51:48.340Z,4
2017-09-24T07:52:56.638Z,4
2017-09-24T07:54:06.088Z,4
2017-09-24T07:55:12.774Z,4
2017-09-24T07:56:20.785Z,8
2017-09-24T07:57:28.803Z,4
2017-09-24T07:58:36.866Z,4
2017-09-24T07:59:44.949Z,8
2017-09-24T08:00:53.035Z,8
2017-09-24T08:02:01.122Z,4
2017-09-24T08:03:09.214Z,8
2017-09-24T08:04:17.299Z,8
2017-09-24T08:05:25.382Z,8
2017-09-24T08:06:33.470Z,4
2017-09-24T08:07:41.555Z,8
2017-09-24T08:08:49.648Z,8
2017-09-24T08:09:57.729Z,8
2017-09-24T08:11:05.815Z,8
2017-09-24T08:12:13.899Z,8
2017-09-24T08:13:21.987Z,8
2017-09-24T08:14:30.075Z,8
2017-09-24T08:15:38.167Z,8
2017-09-24T08:16:46.269Z,8
2017-09-24T08:17:54.334Z,8
2017-09-24T08:19:02.422Z,8
2017-09-24T08:20:10.508Z,8
2017-09-24T08:21:18.595Z,8
2017-09-24T08:22:26.684Z,8
2017-09-24T08:23:34.785Z,8
2017-09-24T08:24:42.865Z,8
2017-09-24T08:25:50.956Z,8
2017-09-24T08:26:59.043Z,8
2017-09-24T08:28:07.127Z,8
2017-09-24T08:29:15.216Z,8
2017-09-24T08:30:23.302Z,12
2017-09-24T08:31:31.390Z,8
2017-09-24T08:32:39.475Z,16
2017-09-24T08:33:47.571Z,16
2017-09-24T08:34:55.652Z,16
2017-09-24T08:36:03.735Z,16
2017-09-24T08:37:11.822Z,16
2017-09-24T08:38:19.909Z,16
2017-09-24T08:39:28.009Z,16
2017-09-24T08:40:36.090Z,12
2017-09-24T08:41:44.179Z,16
2017-09-24T08:42:52.265Z,12
2017-09-24T08:44:00.351Z,12
2017-09-24T08:45:08.437Z,16
2017-09-24T08:46:16.526Z,16
2017-09-24T08:47:24.636Z,16
2017-09-24T08:48:32.702Z,20
2017-09-24T08:49:40.782Z,20
2017-09-24T08:50:48.878Z,20
2017-09-24T08:51:56.957Z,20
2017-09-24T08:53:05.045Z,16
2017-09-24T08:54:13.128Z,16
2017-09-24T08:55:21.216Z,12
2017-09-24T08:56:29.303Z,12
2017-09-24T08:57:37.398Z,8
2017-09-24T08:58:45.488Z,12
2017-09-24T08:59:53.573Z,12
2017-09-24T09:01:01.669Z,12
2017-09-24T09:02:09.746Z,12
2017-09-24T09:03:17.885Z,12
2017-09-24T09:04:25.943Z,12
2017-09-24T09:05:34.009Z,8
2017-09-24T09:06:42.096Z,8
2017-09-24T09:07:50.180Z,12
2017-09-24T09:08:58.268Z,16
2017-09-24T09:10:06.359Z,16
2017-09-24T09:11:14.441Z,16
2017-09-24T09:12:22.533Z,16
2017-09-24T09:13:30.613Z,16
2017-09-24T09:14:38.704Z,20
2017-09-24T09:15:46.808Z,20
2017-09-24T09:16:54.894Z,16
2017-09-24T09:18:02.979Z,20
2017-09-24T09:19:11.068Z,20
2017-09-24T09:20:19.155Z,20
2017-09-24T09:21:27.269Z,20
2017-09-24T09:22:35.326Z,16
2017-09-24T09:23:43.416Z,16
2017-09-24T09:24:51.500Z,20
2017-09-24T09:25:59.600Z,20
2017-09-24T09:27:07.673Z,20
2017-09-24T09:28:15.758Z,24
2017-09-24T09:29:23.849Z,20
2017-09-24T09:30:31.934Z,20
2017-09-24T09:31:40.021Z,20
2017-09-24T09:32:48.106Z,20
2017-09-24T09:33:56.193Z,16
2017-09-24T09:35:04.280Z,16
2017-09-24T09:36:12.364Z,12
2017-09-24T09:37:20.451Z,12
2017-09-24T09:38:28.539Z,12
2017-09-24T09:39:36.626Z,12
2017-09-24T09:40:44.710Z,16
2017-09-24T09:41:52.808Z,16
2017-09-24T09:43:00.890Z,12
2017-09-24T09:44:08.972Z,20
2017-09-24T09:45:17.059Z,24
2017-09-24T09:46:25.144Z,24
2017-09-24T09:47:33.232Z,20
2017-09-24T09:48:41.321Z,24
2017-09-24T09:49:49.403Z,20
2017-09-24T09:50:57.492Z,24
2017-09-24T09:52:05.590Z,20
2017-09-24T09:53:13.674Z,20
2017-09-24T09:54:21.753Z,24
2017-09-24T09:55:29.840Z,24
2017-09-24T09:56:37.926Z,20
2017-09-24T09:57:46.012Z,20
2017-09-24T09:58:54.099Z,24
2017-09-24T10:00:02.184Z,20
2017-09-24T10:01:10.273Z,20
2017-09-24T10:02:18.369Z,20
2017-09-24T10:03:26.456Z,20
2017-09-24T10:04:34.544Z,24
2017-09-24T10:05:42.648Z,24
2017-09-24T10:06:50.714Z,24
2017-09-24T10:07:58.807Z,24
2017-09-24T10:09:06.888Z,24
2017-09-24T10:10:14.991Z,24
2017-09-24T10:11:23.063Z,24
2017-09-24T10:12:31.151Z,24
2017-09-24T10:13:39.234Z,24
2017-09-24T10:14:47.324Z,20
2017-09-24T10:15:55.409Z,24
2017-09-24T10:17:03.493Z,20
2017-09-24T10:18:11.747Z,20
2017-09-24T10:19:19.833Z,24
2017-09-24T10:20:27.921Z,20
2017-09-24T10:21:36.007Z,24
2017-09-24T10:22:44.094Z,24
2017-09-24T10:23:52.181Z,24
2017-09-24T10:25:00.656Z,24
2017-09-24T10:26:08.353Z,24
2017-09-24T10:27:16.437Z,24
2017-09-24T10:28:24.531Z,20
2017-09-24T10:29:32.621Z,20
2017-09-24T10:30:40.717Z,24
2017-09-24T10:31:48.788Z,20
2017-09-24T10:32:56.874Z,24
2017-09-24T10:34:04.963Z,20
2017-09-24T10:35:13.048Z,24
2017-09-24T10:36:21.135Z,20
2017-09-24T10:37:29.304Z,20
2017-09-24T10:38:37.393Z,20
2017-09-24T10:39:45.479Z,20
2017-09-24T10:40:53.569Z,24
2017-09-24T10:42:01.656Z,24
2017-09-24T10:43:09.741Z,24
2017-09-24T10:44:17.893Z,20
2017-09-24T10:45:25.997Z,24
2017-09-24T10:46:34.084Z,20
2017-09-24T10:47:42.168Z,24
2017-09-24T10:48:50.255Z,20
2017-09-24T10:49:58.344Z,20
2017-09-24T10:51:06.431Z,24
2017-09-24T10:52:14.538Z,24
2017-09-24T10:53:22.605Z,24
2017-09-24T10:54:30.725Z,24
2017-09-24T10:55:38.780Z,20
2017-09-24T10:56:46.862Z,16
2017-09-24T10:57:54.950Z,20
2017-09-24T10:59:03.044Z,24
2017-09-24T11:00:11.155Z,28
2017-09-24T11:01:19.240Z,24
2017-09-24T11:02:27.329Z,24
2017-09-24T11:03:35.417Z,24
2017-09-24T11:04:43.502Z,28
2017-09-24T11:05:51.590Z,24
2017-09-24T11:06:59.675Z,24
2017-09-24T11:08:07.764Z,28
2017-09-24T11:09:15.849Z,24
2017-09-24T11:10:23.938Z,28
2017-09-24T11:11:32.022Z,24
2017-09-24T11:12:40.111Z,28
2017-09-24T11:13:48.196Z,28
2017-09-24T11:14:56.285Z,24
2017-09-24T11:16:04.381Z,24
2017-09-24T11:17:12.459Z,24
2017-09-24T11:18:20.544Z,24
2017-09-24T11:19:28.629Z,24
2017-09-24T11:20:36.717Z,28
2017-09-24T11:21:44.803Z,24
2017-09-24T11:22:52.890Z,24
2017-09-24T11:24:00.976Z,24
2017-09-24T11:25:09.061Z,28
2017-09-24T11:26:17.152Z,28
2017-09-24T11:27:25.237Z,24
2017-09-24T11:28:33.324Z,24
2017-09-24T11:29:41.413Z,24
2017-09-24T11:30:49.497Z,24
2017-09-24T11:31:57.588Z,12
2017-09-24T11:33:05.676Z,24
2017-09-24T11:34:13.761Z,24
2017-09-24T11:35:21.850Z,24
2017-09-24T11:36:29.933Z,24
2017-09-24T11:37:38.017Z,24
2017-09-24T11:38:46.105Z,24
2017-09-24T11:39:54.192Z,24
2017-09-24T11:41:02.279Z,20
2017-09-24T11:42:10.366Z,24
2017-09-24T11:43:18.452Z,20
2017-09-24T11:44:26.541Z,20
2017-09-24T11:45:34.633Z,20
2017-09-24T11:46:42.714Z,12
2017-09-24T11:47:50.802Z,12
2017-09-24T11:48:58.893Z,16
2017-09-24T11:50:06.975Z,12
2017-09-24T11:51:15.063Z,16
2017-09-24T11:52:23.150Z,16
2017-09-24T11:53:31.238Z,20
2017-09-24T11:54:39.321Z,20
2017-09-24T11:55:47.409Z,16
2017-09-24T11:56:55.497Z,16
2017-09-24T11:58:03.585Z,12
2017-09-24T11:59:12.247Z,12
2017-09-24T12:00:20.332Z,12
2017-09-24T12:01:28.419Z,8
2017-09-24T12:02:36.523Z,12
2017-09-24T12:03:44.596Z,12
2017-09-24T12:04:52.679Z,12
2017-09-24T12:06:00.767Z,16
2017-09-24T12:07:08.855Z,12
2017-09-24T12:08:16.946Z,12
2017-09-24T12:09:25.032Z,12
2017-09-24T12:10:33.115Z,12
2017-09-24T12:11:41.204Z,12
2017-09-24T12:12:49.285Z,12
2017-09-24T12:13:57.372Z,12
2017-09-24T12:15:05.458Z,8
2017-09-24T12:16:13.549Z,12
2017-09-24T12:17:21.636Z,8
2017-09-24T12:18:29.721Z,12
2017-09-24T12:19:37.810Z,8
2017-09-24T12:20:45.895Z,8
2017-09-24T12:21:53.982Z,8
2017-09-24T12:23:02.066Z,8
2017-09-24T12:24:10.153Z,8
2017-09-24T12:25:18.238Z,8
2017-09-24T12:26:26.332Z,8
2017-09-24T12:27:34.414Z,8
2017-09-24T12:28:42.501Z,8
2017-09-24T12:29:50.594Z,8
2017-09-24T12:30:58.673Z,8
2017-09-24T12:32:06.758Z,8
2017-09-24T12:33:14.844Z,8
2017-09-24T12:34:22.932Z,4
2017-09-24T12:35:31.018Z,8
2017-09-24T12:36:39.109Z,8
2017-09-24T12:37:47.192Z,4
2017-09-24T12:38:55.277Z,8
2017-09-24T12:40:03.372Z,8
2017-09-24T12:41:11.450Z,4
2017-09-24T12:42:19.542Z,8
2017-09-24T12:43:27.641Z,8
2017-09-24T12:44:35.709Z,8
2017-09-24T12:45:43.797Z,4
2017-09-24T12:46:51.883Z,4
2017-09-24T12:47:59.970Z,8
2017-09-24T12:49:08.060Z,8
2017-09-24T12:50:16.145Z,4
2017-09-24T12:51:24.228Z,4
2017-09-24T12:52:32.320Z,8
2017-09-24T12:53:40.403Z,4
2017-09-24T12:54:48.489Z,4
2017-09-24T12:55:56.596Z,4
2017-09-24T12:57:04.662Z,8
2017-09-24T12:58:12.751Z,8
2017-09-24T12:59:20.837Z,8
2017-09-24T13:00:28.923Z,8
2017-09-24T13:01:37.010Z,8
2017-09-24T13:02:45.098Z,4
2017-09-24T13:03:53.183Z,8
2017-09-24T13:05:01.296Z,8
2017-09-24T13:06:09.356Z,4
2017-09-24T13:07:17.482Z,4
2017-09-24T13:08:25.529Z,8
2017-09-24T13:09:33.616Z,4
2017-09-24T13:10:41.708Z,4
2017-09-24T13:11:49.790Z,4
2017-09-24T13:12:57.872Z,8
2017-09-24T13:14:05.958Z,8
2017-09-24T13:15:14.056Z,8
2017-09-24T13:16:22.144Z,4
2017-09-24T13:17:30.229Z,8
2017-09-24T13:18:38.316Z,4
2017-09-24T13:19:46.400Z,8
2017-09-24T13:20:54.495Z,4
2017-09-24T13:22:02.572Z,8
2017-09-24T13:23:10.657Z,4
2017-09-24T13:24:18.745Z,8
2017-09-24T13:25:26.834Z,8
2017-09-24T13:26:34.919Z,8
2017-09-24T13:27:43.003Z,8
2017-09-24T13:28:51.090Z,8
2017-09-24T13:29:59.177Z,12
2017-09-24T13:31:07.262Z,16
2017-09-24T13:32:15.347Z,16
2017-09-24T13:33:23.434Z,20
2017-09-24T13:34:31.524Z,20
2017-09-24T13:35:39.613Z,16
2017-09-24T13:36:47.825Z,16
2017-09-24T13:37:55.871Z,20
2017-09-24T13:39:03.872Z,20
2017-09-24T13:40:11.961Z,16
2017-09-24T13:41:20.043Z,16
2017-09-24T13:42:28.138Z,20
2017-09-24T13:43:36.216Z,16
2017-09-24T13:44:44.305Z,20
2017-09-24T13:45:52.390Z,20
2017-09-24T13:47:00.477Z,20
2017-09-24T13:48:08.563Z,20
2017-09-24T13:49:16.649Z,20
2017-09-24T13:50:24.734Z,24
2017-09-24T13:51:32.820Z,20
2017-09-24T13:52:40.936Z,24
2017-09-24T13:53:48.993Z,20
2017-09-24T13:54:57.079Z,20
2017-09-24T13:56:05.166Z,20
2017-09-24T13:57:13.257Z,24
2017-09-24T13:58:21.344Z,20
2017-09-24T13:59:29.429Z,20
2017-09-24T14:00:37.525Z,20
2017-09-24T14:01:45.598Z,24
2017-09-24T14:02:53.685Z,24
2017-09-24T14:04:01.773Z,20
2017-09-24T14:05:09.862Z,20
2017-09-24T14:06:17.949Z,20
2017-09-24T14:07:26.036Z,16
2017-09-24T14:08:34.122Z,20
2017-09-24T14:09:42.214Z,16
2017-09-24T14:10:50.293Z,16
2017-09-24T14:11:58.379Z,16
2017-09-24T14:13:06.478Z,16
2017-09-24T14:14:14.669Z,16
2017-09-24T14:15:22.649Z,12
2017-09-24T14:16:30.748Z,16
2017-09-24T14:17:38.820Z,4
2017-09-24T14:18:46.906Z,8
2017-09-24T14:19:54.991Z,4
2017-09-24T14:21:03.078Z,4
2017-09-24T14:22:11.165Z,12
2017-09-24T14:23:19.251Z,8
2017-09-24T14:24:27.336Z,12
2017-09-24T14:25:35.424Z,16
2017-09-24T14:26:43.510Z,16
2017-09-24T14:27:51.599Z,16
2017-09-24T14:28:59.684Z,12
2017-09-24T14:30:07.768Z,12
2017-09-24T14:31:15.856Z,16
2017-09-24T14:32:23.942Z,16
2017-09-24T14:33:32.030Z,20
2017-09-24T14:34:40.115Z,16
2017-09-24T14:35:48.210Z,20
2017-09-24T14:36:56.289Z,20
2017-09-24T14:38:04.375Z,16
2017-09-24T14:39:12.460Z,20
2017-09-24T14:40:20.547Z,20
2017-09-24T14:41:28.634Z,20
2017-09-24T14:42:36.720Z,20
2017-09-24T14:43:44.806Z,24
2017-09-24T14:44:52.894Z,24
2017-09-24T14:46:00.980Z,28
2017-09-24T14:47:09.067Z,32
2017-09-24T14:48:17.151Z,28
2017-09-24T14:49:25.246Z,28
2017-09-24T14:50:33.332Z,24
2017-09-24T14:51:41.418Z,28
2017-09-24T14:52:49.514Z,24
2017-09-24T14:53:57.592Z,20
2017-09-24T14:55:05.683Z,12
2017-09-24T14:56:13.769Z,8
2017-09-24T14:57:21.854Z,8
2017-09-24T14:58:29.943Z,8
2017-09-24T14:59:38.027Z,4
2017-09-24T15:00:46.114Z,8
2017-09-24T15:01:54.199Z,4
2017-09-24T15:03:02.287Z,4
2017-09-24T15:04:10.373Z,8
2017-09-24T15:05:18.465Z,4
2017-09-24T15:06:26.548Z,4
2017-09-24T15:07:34.632Z,4
2017-09-24T15:08:42.733Z,4
2017-09-24T15:09:50.874Z,4
2017-09-24T15:10:58.959Z,4
2017-09-24T15:12:07.045Z,4
2017-09-24T15:13:15.131Z,8
2017-09-24T15:14:23.221Z,4
2017-09-24T15:15:31.306Z,4
2017-09-24T15:16:39.398Z,4
2017-09-24T15:17:47.479Z,4
2017-09-24T15:18:55.568Z,4
2017-09-24T15:20:03.648Z,4
2017-09-24T15:21:11.864Z,4
2017-09-24T15:22:19.834Z,4
2017-09-24T15:23:28.021Z,4
2017-09-24T15:24:35.994Z,4
2017-09-24T15:25:44.077Z,4
2017-09-24T15:26:52.167Z,4
2017-09-24T15:28:00.253Z,4
2017-09-24T15:29:08.340Z,4
2017-09-24T15:30:16.426Z,8
2017-09-24T15:31:24.511Z,4
2017-09-24T15:32:32.598Z,4
2017-09-24T15:33:40.683Z,4
2017-09-24T15:34:48.778Z,4
2017-09-24T15:35:56.870Z,4
2017-09-24T15:37:04.954Z,4
2017-09-24T15:38:13.037Z,0
2017-09-24T15:39:21.121Z,4
2017-09-24T15:40:29.207Z,4
2017-09-24T15:41:37.299Z,4
2017-09-24T15:42:45.381Z,4
2017-09-24T15:43:53.467Z,4
2017-09-24T15:45:01.556Z,4
2017-09-24T15:46:09.639Z,0
2017-09-24T15:47:17.726Z,4
2017-09-24T15:48:25.810Z,4
2017-09-24T15:49:33.897Z,0
2017-09-24T15:50:42.072Z,4
2017-09-24T15:51:50.087Z,0
2017-09-24T15:52:58.167Z,0
2017-09-24T15:54:06.252Z,0
2017-09-24T15:55:14.347Z,4
2017-09-24T15:56:22.437Z,4
2017-09-24T15:57:30.522Z,4
2017-09-24T15:58:38.614Z,4
2017-09-24T15:59:46.700Z,0
2017-09-24T16:00:54.804Z,0
2017-09-24T16:02:02.875Z,0
2017-09-24T16:03:10.956Z,0
2017-09-24T16:04:19.041Z,0
2017-09-24T16:05:27.129Z,0
2017-09-24T16:06:35.217Z,0
2017-09-24T16:07:43.304Z,0
2017-09-24T16:08:51.389Z,0
2017-09-24T16:09:59.485Z,0
2017-09-24T16:11:07.603Z,0
2017-09-24T16:12:15.690Z,4
2017-09-24T16:13:23.780Z,4
2017-09-24T16:14:31.917Z,4
2017-09-24T16:15:39.946Z,0
2017-09-24T16:16:48.050Z,0
2017-09-24T16:17:56.121Z,0
2017-09-24T16:19:04.207Z,0
2017-09-24T16:20:12.293Z,0
2017-09-24T16:21:20.379Z,0
2017-09-24T16:22:28.463Z,4
2017-09-24T16:23:36.551Z,4
2017-09-24T16:24:44.654Z,0
2017-09-24T16:25:52.722Z,0
2017-09-24T16:27:00.808Z,0
2017-09-24T16:28:08.894Z,0
2017-09-24T16:29:16.983Z,0
2017-09-24T16:30:25.067Z,4
2017-09-24T16:31:33.152Z,0
2017-09-24T16:32:41.239Z,0
2017-09-24T16:33:49.322Z,0
2017-09-24T16:34:57.418Z,0
2017-09-24T16:36:05.525Z,0